createdAt,value
2022-07-26T00:03:31.969Z,63.24
2022-07-26T00:08:32.800Z,63.58
2022-07-26T00:13:34.390Z,63.92
2022-07-26T00:18:35.265Z,63.97
2022-07-26T00:23:36.363Z,63.60
2022-07-26T00:28:37.726Z,62.59
2022-07-26T00:33:39.640Z,62.60
2022-07-26T00:38:40.743Z,62.54
2022-07-26T00:43:56.106Z,63.20
2022-07-26T00:48:57.189Z,63.69
2022-07-26T00:53:58.217Z,66.15
2022-07-26T00:59:00.089Z,66.19
2022-07-26T01:04:01.416Z,65.47
2022-07-26T01:09:04.646Z,65.32
2022-07-26T01:14:06.087Z,64.85
2022-07-26T01:19:07.244Z,65.24
2022-07-26T01:24:08.802Z,65.49
2022-07-26T01:29:10.805Z,65.42
2022-07-26T01:34:11.983Z,65.02
2022-07-26T01:39:13.260Z,65.24
2022-07-26T01:44:14.297Z,65.47
2022-07-26T01:49:15.220Z,65.69
2022-07-26T01:54:16.187Z,65.18
2022-07-26T01:59:23.881Z,65.89
2022-07-26T02:04:43.070Z,65.22
2022-07-26T02:09:43.973Z,65.66
2022-07-26T02:14:44.953Z,66.06
2022-07-26T02:19:45.778Z,65.92
2022-07-26T02:24:47.465Z,66.15
2022-07-26T02:29:48.567Z,68.74
2022-07-26T02:34:49.549Z,70.18
2022-07-26T02:39:50.484Z,70.21
2022-07-26T02:44:53.288Z,70.51
2022-07-26T02:49:54.116Z,70.46
2022-07-26T02:54:55.054Z,71.71
2022-07-26T02:59:55.882Z,72.54
2022-07-26T03:04:56.762Z,73.96
2022-07-26T03:09:57.825Z,74.26
2022-07-26T03:14:59.131Z,73.89
2022-07-26T03:20:01.624Z,73.86
2022-07-26T03:25:02.987Z,74.62
2022-07-26T03:30:05.907Z,74.47
2022-07-26T03:35:08.490Z,73.25
2022-07-26T03:40:10.230Z,72.07
2022-07-26T03:45:12.150Z,72.45
2022-07-26T03:50:12.979Z,71.85
2022-07-26T03:55:32.906Z,71.94
2022-07-26T04:00:33.864Z,72.65
2022-07-26T04:05:34.931Z,72.87
2022-07-26T04:10:37.179Z,73.36
2022-07-26T04:15:38.118Z,74.55
2022-07-26T04:20:39.458Z,74.84
2022-07-26T04:25:40.913Z,75.04
2022-07-26T04:30:42.608Z,77.07
2022-07-26T04:35:43.613Z,77.00
2022-07-26T04:40:44.898Z,77.10
2022-07-26T04:45:47.659Z,76.79
2022-07-26T04:50:49.022Z,76.66
2022-07-26T04:55:49.899Z,77.01
2022-07-26T05:06:21.774Z,75.83
2022-07-26T05:11:24.545Z,74.43
2022-07-26T05:16:26.158Z,72.79
2022-07-26T05:21:28.966Z,70.50
2022-07-26T05:26:29.888Z,68.79
2022-07-26T05:31:30.783Z,69.16
2022-07-26T05:36:31.583Z,69.49
2022-07-26T05:41:32.891Z,70.58
2022-07-26T05:46:33.932Z,70.53
2022-07-26T05:51:34.894Z,70.15
2022-07-26T05:56:36.063Z,70.21
2022-07-26T06:01:36.970Z,70.45
2022-07-26T06:06:37.918Z,71.21
2022-07-26T06:11:38.827Z,70.94
2022-07-26T06:16:39.912Z,70.97
2022-07-26T06:21:42.299Z,69.77
2022-07-26T06:26:43.794Z,70.76
2022-07-26T06:31:44.783Z,69.48
2022-07-26T06:36:46.040Z,69.82
2022-07-26T06:41:46.971Z,70.17
2022-07-26T06:46:49.188Z,70.57
2022-07-26T06:51:50.009Z,70.50
2022-07-26T06:56:50.909Z,69.30
2022-07-26T07:01:59.032Z,67.25
2022-07-26T07:07:07.876Z,65.41
2022-07-26T07:12:10.735Z,63.62
2022-07-26T07:17:17.200Z,63.49
2022-07-26T07:22:21.018Z,61.83
2022-07-26T07:27:21.923Z,61.12
2022-07-26T07:32:22.831Z,60.92
2022-07-26T07:37:25.714Z,60.05
2022-07-26T07:42:26.733Z,59.54
2022-07-26T07:47:28.064Z,60.64
2022-07-26T07:52:28.950Z,61.20
2022-07-26T07:57:29.954Z,59.17
2022-07-26T08:02:30.828Z,57.98
2022-07-26T08:07:32.928Z,57.44
2022-07-26T08:12:37.145Z,57.21
2022-07-26T08:17:41.974Z,56.38
2022-07-26T08:22:44.077Z,54.69
2022-07-26T08:27:55.086Z,53.90
2022-07-26T08:33:03.761Z,54.96
2022-07-26T08:38:04.629Z,54.14
2022-07-26T08:43:05.582Z,54.53
2022-07-26T08:48:17.310Z,53.41
2022-07-26T08:53:19.638Z,53.84
2022-07-26T08:58:20.475Z,51.53
2022-07-26T09:03:25.912Z,54.75
2022-07-26T09:08:29.053Z,55.44
2022-07-26T09:14:15.357Z,54.21
2022-07-26T09:19:21.835Z,54.98
2022-07-26T09:24:35.361Z,54.82
2022-07-26T09:30:10.755Z,55.82
2022-07-26T09:35:46.039Z,55.48
2022-07-26T09:40:54.641Z,53.84
2022-07-26T09:46:04.454Z,50.73
2022-07-26T09:51:06.952Z,51.42
2022-07-26T09:56:08.524Z,53.15
2022-07-26T10:01:09.374Z,51.49
2022-07-26T10:06:10.992Z,50.92
2022-07-26T10:11:13.499Z,51.69
2022-07-26T10:16:31.299Z,52.12
2022-07-26T10:21:34.531Z,50.98
2022-07-26T10:26:37.598Z,49.14
2022-07-26T10:31:38.602Z,49.19
2022-07-26T10:36:39.703Z,50.26
2022-07-26T10:41:56.505Z,49.83
2022-07-26T10:47:18.314Z,50.59
2022-07-26T10:52:28.338Z,48.96
2022-07-26T10:57:37.861Z,47.81
2022-07-26T11:02:39.174Z,47.39
2022-07-26T11:08:47.785Z,49.45
2022-07-26T11:13:49.148Z,48.21
2022-07-26T11:18:51.477Z,48.24
2022-07-26T11:24:01.712Z,49.10
2022-07-26T11:29:06.445Z,50.41
2022-07-26T11:34:16.327Z,48.49
2022-07-26T11:39:22.928Z,48.60
2022-07-26T11:44:24.471Z,46.38
2022-07-26T11:50:00.818Z,45.53
2022-07-26T11:55:11.769Z,46.89
2022-07-26T12:00:14.133Z,46.02
2022-07-26T12:05:20.133Z,43.16
2022-07-26T12:10:22.022Z,43.37
2022-07-26T12:15:22.865Z,43.68
2022-07-26T12:20:27.205Z,44.58
2022-07-26T12:25:29.011Z,41.88
2022-07-26T12:30:34.803Z,40.54
2022-07-26T12:35:36.011Z,40.47
2022-07-26T12:40:40.950Z,38.16
2022-07-26T12:45:42.763Z,37.29
2022-07-26T12:50:43.620Z,37.20
2022-07-26T12:55:44.707Z,36.15
2022-07-26T13:00:45.535Z,37.53
2022-07-26T13:05:46.425Z,37.99
2022-07-26T13:10:47.273Z,38.71
2022-07-26T13:15:48.163Z,38.93
2022-07-26T13:20:49.004Z,38.99
2022-07-26T13:25:49.930Z,36.78
2022-07-26T13:30:50.905Z,35.36
2022-07-26T13:35:52.137Z,34.95
2022-07-26T13:40:53.000Z,34.89
2022-07-26T13:45:54.070Z,35.71
2022-07-26T13:50:56.704Z,36.49
2022-07-26T13:55:57.731Z,32.74
2022-07-26T14:01:00.026Z,32.78
2022-07-26T14:06:01.136Z,32.29
2022-07-26T14:11:04.137Z,33.23
2022-07-26T14:16:05.345Z,34.31
2022-07-26T14:21:10.611Z,35.20
2022-07-26T14:26:11.980Z,34.55
2022-07-26T14:31:12.968Z,34.72
2022-07-26T14:36:14.249Z,37.25
2022-07-26T14:41:15.579Z,40.10
2022-07-26T14:46:16.708Z,41.04
2022-07-26T14:51:17.729Z,41.47
2022-07-26T14:56:18.711Z,40.53
2022-07-26T15:01:19.709Z,39.29
2022-07-26T15:06:20.808Z,39.13
2022-07-26T15:11:21.765Z,40.12
2022-07-26T15:16:22.777Z,40.56
2022-07-26T15:21:23.690Z,40.46
2022-07-26T15:26:24.738Z,40.50
2022-07-26T15:31:36.984Z,39.20
2022-07-26T15:36:38.642Z,38.66
2022-07-26T15:41:39.570Z,38.97
2022-07-26T15:46:40.467Z,39.28
2022-07-26T15:51:42.888Z,40.28
2022-07-26T15:56:43.934Z,40.90
2022-07-26T16:01:45.041Z,40.78
2022-07-26T16:06:46.570Z,39.69
2022-07-26T16:11:48.675Z,39.01
2022-07-26T16:16:49.705Z,42.02
2022-07-26T16:21:50.636Z,42.25
2022-07-26T16:26:52.361Z,44.28
2022-07-26T16:31:55.325Z,45.65
2022-07-26T16:36:56.270Z,46.04
2022-07-26T16:41:57.321Z,46.51
2022-07-26T16:46:58.273Z,45.71
2022-07-26T16:51:59.409Z,46.37
2022-07-26T16:57:01.239Z,46.40
2022-07-26T17:02:02.849Z,46.78
2022-07-26T17:12:35.662Z,48.13
2022-07-26T17:17:36.764Z,48.65
2022-07-26T17:22:39.213Z,48.63
2022-07-26T17:27:40.840Z,48.66
2022-07-26T17:32:41.877Z,49.16
2022-07-26T17:37:42.881Z,48.73
2022-07-26T17:42:43.923Z,48.69
2022-07-26T17:47:46.113Z,48.45
2022-07-26T17:52:48.207Z,48.92
2022-07-26T17:57:50.163Z,49.07
2022-07-26T18:02:51.269Z,49.03
2022-07-26T18:07:52.124Z,49.16
2022-07-26T18:12:56.316Z,49.65
2022-07-26T18:17:57.211Z,49.84
2022-07-26T18:22:58.832Z,49.73
2022-07-26T18:28:04.717Z,49.92
2022-07-26T18:33:11.179Z,49.99
2022-07-26T18:38:12.035Z,50.91
2022-07-26T18:43:13.159Z,51.65
2022-07-26T18:48:14.130Z,51.50
2022-07-26T18:53:15.343Z,52.01
2022-07-26T18:58:16.439Z,55.60
2022-07-26T19:03:18.957Z,58.24
2022-07-26T19:08:19.815Z,58.90
2022-07-26T19:13:21.012Z,59.44
2022-07-26T19:18:21.873Z,61.23
2022-07-26T19:23:22.786Z,61.82
2022-07-26T19:28:23.932Z,62.24
2022-07-26T19:33:24.799Z,62.91
2022-07-26T19:38:25.705Z,63.74
2022-07-26T19:43:27.911Z,64.34
2022-07-26T19:48:28.921Z,64.13
2022-07-26T19:53:29.925Z,64.72
2022-07-26T19:58:30.964Z,65.64
2022-07-26T20:03:32.379Z,65.88
2022-07-26T20:08:33.956Z,67.13
2022-07-26T20:13:35.321Z,67.52
2022-07-26T20:18:36.348Z,68.79
2022-07-26T20:23:37.222Z,69.02
2022-07-26T20:28:38.177Z,69.14
2022-07-26T20:33:39.104Z,69.13
2022-07-26T20:38:39.906Z,68.12
2022-07-26T20:43:40.906Z,68.82
2022-07-26T20:48:42.360Z,68.78
2022-07-26T20:53:43.549Z,69.13
2022-07-26T20:58:44.679Z,69.69
2022-07-26T21:03:45.571Z,69.53
2022-07-26T21:08:46.411Z,69.79
2022-07-26T21:13:47.729Z,69.42
2022-07-26T21:18:52.872Z,69.67
2022-07-26T21:23:54.172Z,70.16
2022-07-26T21:28:55.093Z,69.97
2022-07-26T21:33:55.983Z,70.25
2022-07-26T21:38:56.906Z,70.40
2022-07-26T21:43:58.014Z,71.03
2022-07-26T21:48:58.948Z,71.63
2022-07-26T21:53:59.822Z,71.25
2022-07-26T21:59:02.820Z,71.56
2022-07-26T22:04:03.940Z,71.46
2022-07-26T22:09:04.876Z,72.46
2022-07-26T22:14:07.770Z,72.46
2022-07-26T22:19:08.922Z,72.41
2022-07-26T22:24:10.212Z,71.60
2022-07-26T22:29:11.499Z,71.89
2022-07-26T22:34:12.704Z,71.59
2022-07-26T22:39:14.012Z,72.66
2022-07-26T22:44:15.763Z,72.93
2022-07-26T22:49:16.707Z,73.68
2022-07-26T22:54:17.603Z,73.16
2022-07-26T22:59:18.899Z,74.16
2022-07-26T23:04:19.783Z,73.46
2022-07-26T23:09:22.527Z,73.53
2022-07-26T23:14:23.322Z,74.31
2022-07-26T23:19:24.630Z,73.56
2022-07-26T23:24:25.474Z,75.00
2022-07-26T23:29:26.433Z,74.72
2022-07-26T23:34:27.532Z,74.90
2022-07-26T23:39:28.425Z,75.09
2022-07-26T23:44:30.587Z,75.32
2022-07-26T23:49:31.917Z,74.70
2022-07-26T23:54:32.799Z,75.42
2022-07-26T23:59:33.773Z,75.43
